createdAt,value
2019-04-20T00:02:27.586Z,24.88
2019-04-20T00:05:01.635Z,24.87
2019-04-20T00:07:37.530Z,24.87
2019-04-20T00:10:16.531Z,24.87
2019-04-20T00:12:59.714Z,24.87
2019-04-20T00:15:21.988Z,24.87
2019-04-20T00:17:58.966Z,24.86
2019-04-20T00:20:34.366Z,24.87
2019-04-20T00:23:22.945Z,24.87
2019-04-20T00:26:17.312Z,24.87
2019-04-20T00:29:02.740Z,24.87
2019-04-20T00:31:36.521Z,24.87
2019-04-20T00:34:05.922Z,24.88
2019-04-20T00:36:30.744Z,24.87
2019-04-20T00:39:09.130Z,24.87
2019-04-20T00:41:49.028Z,24.88
2019-04-20T00:44:22.234Z,24.86
2019-04-20T00:47:04.607Z,24.86
2019-04-20T00:49:41.931Z,24.87
2019-04-20T00:52:31.045Z,24.87
2019-04-20T00:54:39.107Z,24.87
2019-04-20T00:57:22.457Z,24.87
2019-04-20T01:00:21.769Z,24.87
2019-04-20T01:02:36.145Z,24.87
2019-04-20T01:05:18.079Z,24.87
2019-04-20T01:07:53.536Z,24.87
2019-04-20T01:10:28.379Z,24.87
2019-04-20T01:13:06.754Z,24.87
2019-04-20T01:15:43.786Z,24.88
2019-04-20T01:18:13.591Z,24.86
2019-04-20T01:20:47.350Z,24.88
2019-04-20T01:23:24.343Z,24.88
2019-04-20T01:26:04.048Z,24.87
2019-04-20T01:28:46.792Z,24.88
2019-04-20T01:31:18.707Z,24.87
2019-04-20T01:33:55.085Z,24.87
2019-04-20T01:36:36.887Z,24.87
2019-04-20T01:39:07.544Z,24.87
2019-04-20T01:41:30.767Z,24.87
2019-04-20T01:44:05.098Z,24.87
2019-04-20T01:46:45.699Z,24.87
2019-04-20T01:49:18.207Z,24.87
2019-04-20T01:51:57.753Z,24.87
2019-04-20T01:54:48.485Z,24.86
2019-04-20T01:57:26.187Z,24.87
2019-04-20T02:00:11.086Z,24.87
2019-04-20T02:02:50.440Z,24.86
2019-04-20T02:05:24.736Z,24.86
2019-04-20T02:07:57.096Z,24.86
2019-04-20T02:10:40.376Z,24.86
2019-04-20T02:13:07.777Z,24.87
2019-04-20T02:15:48.538Z,24.86
2019-04-20T02:18:33.803Z,24.86
2019-04-20T02:21:09.828Z,24.86
2019-04-20T02:23:38.702Z,24.85
2019-04-20T02:26:05.072Z,24.86
2019-04-20T02:29:07.925Z,24.86
2019-04-20T02:31:55.619Z,24.86
2019-04-20T02:34:33.528Z,24.86
2019-04-20T02:39:46.791Z,24.86
2019-04-20T02:42:19.716Z,24.86
2019-04-20T02:45:05.175Z,24.85
2019-04-20T02:47:32.108Z,24.86
2019-04-20T02:53:05.267Z,24.86
2019-04-20T02:55:16.545Z,24.86
2019-04-20T02:57:53.020Z,24.86
2019-04-20T03:00:20.877Z,24.86
2019-04-20T03:02:42.979Z,24.86
2019-04-20T03:05:18.944Z,24.86
2019-04-20T03:07:57.525Z,24.85
2019-04-20T03:10:43.417Z,24.85
2019-04-20T03:13:14.165Z,24.86
2019-04-20T03:15:51.974Z,24.86
2019-04-20T03:18:19.743Z,24.85
2019-04-20T03:21:04.548Z,24.86
2019-04-20T03:23:42.802Z,24.86
2019-04-20T03:26:12.856Z,24.85
2019-04-20T03:29:01.563Z,24.86
2019-04-20T03:32:15.009Z,24.85
2019-04-20T03:34:48.128Z,24.85
2019-04-20T03:39:33.425Z,24.85
2019-04-20T03:41:52.040Z,24.84
2019-04-20T03:44:27.811Z,24.86
2019-04-20T03:47:04.618Z,24.85
2019-04-20T03:50:14.788Z,24.86
2019-04-20T03:52:43.157Z,24.86
2019-04-20T03:55:28.702Z,24.85
2019-04-20T03:58:12.785Z,24.86
2019-04-20T04:00:54.475Z,24.85
2019-04-20T04:06:14.776Z,24.86
2019-04-20T04:08:56.025Z,24.87
2019-04-20T04:11:31.260Z,24.85
2019-04-20T04:13:52.932Z,24.86
2019-04-20T04:16:32.891Z,24.88
2019-04-20T04:19:12.621Z,24.87
2019-04-20T04:21:53.734Z,24.86
2019-04-20T04:24:26.107Z,24.87
2019-04-20T04:27:01.899Z,24.86
2019-04-20T04:29:42.925Z,24.88
2019-04-20T04:32:33.172Z,24.87
2019-04-20T04:34:55.294Z,24.88
2019-04-20T04:37:24.324Z,24.88
2019-04-20T04:40:19.574Z,24.88
2019-04-20T04:42:42.339Z,24.88
2019-04-20T04:45:03.950Z,24.87
2019-04-20T04:47:32.723Z,24.88
2019-04-20T04:50:13.077Z,24.90
2019-04-20T04:52:52.214Z,24.88
2019-04-20T04:55:29.537Z,24.89
2019-04-20T04:57:53.779Z,24.89
2019-04-20T05:00:31.078Z,24.90
2019-04-20T05:03:23.293Z,24.90
2019-04-20T05:06:13.387Z,24.89
2019-04-20T05:08:36.832Z,24.89
2019-04-20T05:11:06.943Z,24.90
2019-04-20T05:13:48.891Z,24.89
2019-04-20T05:16:38.465Z,24.90
2019-04-20T05:19:13.424Z,24.90
2019-04-20T05:22:04.051Z,24.90
2019-04-20T05:25:03.489Z,24.91
2019-04-20T05:27:51.195Z,24.92
2019-04-20T05:30:09.846Z,24.91
2019-04-20T05:32:52.835Z,24.91
2019-04-20T05:35:39.213Z,24.90
2019-04-20T05:38:28.105Z,24.91
2019-04-20T05:40:51.440Z,24.92
2019-04-20T05:43:43.135Z,24.91
2019-04-20T05:46:23.600Z,24.94
2019-04-20T05:49:00.553Z,24.93
2019-04-20T05:51:36.452Z,24.94
2019-04-20T05:54:07.228Z,24.93
2019-04-20T05:56:56.272Z,24.93
2019-04-20T05:59:17.587Z,24.94
2019-04-20T06:01:58.805Z,24.95
2019-04-20T06:04:42.776Z,24.96
2019-04-20T06:07:09.733Z,24.95
2019-04-20T06:09:42.656Z,24.97
2019-04-20T06:15:04.585Z,24.97
2019-04-20T06:18:02.757Z,24.96
2019-04-20T06:20:45.288Z,24.99
2019-04-20T06:23:39.842Z,24.98
2019-04-20T06:26:26.867Z,24.98
2019-04-20T06:28:41.555Z,25.01
2019-04-20T06:31:26.721Z,25.02
2019-04-20T06:37:05.756Z,25.00
2019-04-20T06:39:44.779Z,25.02
2019-04-20T06:44:41.302Z,25.05
2019-04-20T06:47:17.673Z,25.07
2019-04-20T06:49:56.671Z,25.07
2019-04-20T06:52:36.996Z,25.05
2019-04-20T06:55:14.077Z,25.06
2019-04-20T06:57:54.860Z,25.11
2019-04-20T07:00:36.876Z,25.10
2019-04-20T07:03:04.678Z,25.09
2019-04-20T07:05:44.737Z,25.10
2019-04-20T07:08:34.623Z,25.10
2019-04-20T07:10:58.173Z,25.11
2019-04-20T07:13:24.004Z,25.11
2019-04-20T07:16:23.930Z,25.11
2019-04-20T07:19:17.557Z,25.10
2019-04-20T07:24:53.268Z,25.10
2019-04-20T07:27:24.430Z,25.10
2019-04-20T07:29:57.948Z,25.10
2019-04-20T07:32:38.690Z,25.12
2019-04-20T07:35:09.890Z,25.02
2019-04-20T07:40:26.874Z,25.08
2019-04-20T07:42:58.751Z,25.10
2019-04-20T07:45:33.235Z,25.10
2019-04-20T07:48:16.131Z,25.13
2019-04-20T07:50:40.771Z,25.13
2019-04-20T07:53:21.411Z,25.12
2019-04-20T07:55:57.993Z,25.18
2019-04-20T07:58:27.323Z,25.26
2019-04-20T08:01:22.298Z,25.30
2019-04-20T08:04:11.498Z,25.32
2019-04-20T08:06:38.627Z,25.32
2019-04-20T08:09:22.224Z,25.34
2019-04-20T08:12:11.748Z,25.34
2019-04-20T08:14:47.998Z,25.34
2019-04-20T08:17:46.497Z,25.34
2019-04-20T08:19:50.908Z,25.39
2019-04-20T08:22:35.584Z,25.37
2019-04-20T08:25:01.151Z,25.40
2019-04-20T08:27:27.646Z,25.41
2019-04-20T08:30:28.188Z,25.37
2019-04-20T08:33:04.256Z,25.55
2019-04-20T08:35:47.704Z,25.72
2019-04-20T08:38:58.325Z,25.71
2019-04-20T08:40:53.296Z,25.78
2019-04-20T08:43:42.560Z,25.72
2019-04-20T08:46:11.215Z,25.73
2019-04-20T08:48:46.766Z,25.73
2019-04-20T08:51:19.504Z,25.74
2019-04-20T08:53:51.860Z,25.73
2019-04-20T08:56:21.612Z,25.72
2019-04-20T08:58:46.138Z,25.76
2019-04-20T09:01:24.271Z,25.77
2019-04-20T09:04:05.402Z,25.78
2019-04-20T09:06:46.053Z,25.76
2019-04-20T09:09:40.590Z,25.73
2019-04-20T09:12:03.237Z,25.73
2019-04-20T09:14:20.906Z,25.74
2019-04-20T09:17:06.851Z,25.73
2019-04-20T09:19:46.974Z,25.73
2019-04-20T09:22:40.618Z,25.73
2019-04-20T09:28:16.111Z,25.54
2019-04-20T09:30:53.253Z,25.52
2019-04-20T09:33:46.598Z,25.47
2019-04-20T09:36:22.564Z,25.40
2019-04-20T09:39:15.017Z,25.37
2019-04-20T09:42:00.764Z,25.27
2019-04-20T09:44:34.977Z,25.10
2019-04-20T09:47:04.684Z,24.93
2019-04-20T09:49:49.232Z,25.13
2019-04-20T09:52:29.000Z,25.22
2019-04-20T09:55:03.122Z,25.21
2019-04-20T09:57:43.853Z,25.20
2019-04-20T10:00:15.535Z,25.18
2019-04-20T10:02:39.240Z,25.18
2019-04-20T10:05:13.587Z,25.20
2019-04-20T10:07:56.905Z,25.20
2019-04-20T10:10:31.289Z,25.22
2019-04-20T10:13:00.537Z,25.17
2019-04-20T10:15:35.383Z,25.11
2019-04-20T10:18:10.026Z,25.12
2019-04-20T10:20:45.222Z,25.17
2019-04-20T10:23:18.995Z,25.20
2019-04-20T10:25:52.766Z,25.06
2019-04-20T10:28:27.716Z,25.10
2019-04-20T10:31:02.303Z,25.10
2019-04-20T10:33:37.333Z,25.14
2019-04-20T10:36:23.641Z,25.18
2019-04-20T10:38:58.249Z,25.18
2019-04-20T10:41:39.956Z,25.20
2019-04-20T10:44:09.185Z,25.19
2019-04-20T10:46:43.280Z,25.18
2019-04-20T10:49:17.547Z,25.21
2019-04-20T10:51:51.774Z,25.18
2019-04-20T10:54:26.685Z,25.21
2019-04-20T10:57:01.496Z,25.20
2019-04-20T10:59:35.402Z,25.19
2019-04-20T11:02:10.049Z,25.21
2019-04-20T11:04:44.373Z,25.19
2019-04-20T11:07:18.717Z,25.19
2019-04-20T11:10:05.591Z,25.21
2019-04-20T11:12:28.490Z,25.17
2019-04-20T11:15:02.957Z,25.12
2019-04-20T11:17:37.398Z,25.09
2019-04-20T11:20:11.149Z,25.08
2019-04-20T11:22:46.283Z,25.11
2019-04-20T11:25:20.350Z,25.08
2019-04-20T11:27:54.418Z,25.08
2019-04-20T11:30:28.095Z,25.09
2019-04-20T11:33:02.378Z,25.10
2019-04-20T11:35:39.577Z,24.79
2019-04-20T11:38:14.757Z,24.38
2019-04-20T11:41:00.124Z,24.29
2019-04-20T11:43:23.953Z,24.23
2019-04-20T11:45:58.525Z,24.34
2019-04-20T11:48:33.715Z,24.31
2019-04-20T11:51:07.636Z,24.55
2019-04-20T11:53:42.681Z,24.42
2019-04-20T11:56:22.681Z,24.36
2019-04-20T11:58:53.148Z,24.43
2019-04-20T12:01:49.036Z,24.23
2019-04-20T12:04:26.127Z,24.15
2019-04-20T12:07:51.363Z,24.17
2019-04-20T12:10:26.461Z,24.28
2019-04-20T12:13:01.754Z,24.18
2019-04-20T12:15:38.807Z,24.14
2019-04-20T12:18:13.784Z,24.29
2019-04-20T12:20:48.783Z,24.37
2019-04-20T12:23:22.607Z,24.33
2019-04-20T12:25:56.512Z,24.15
2019-04-20T12:28:31.529Z,24.08
2019-04-20T12:31:11.989Z,24.04
2019-04-20T12:33:42.328Z,24.03
2019-04-20T12:36:16.495Z,23.94
2019-04-20T12:38:50.960Z,23.99
2019-04-20T12:41:34.458Z,23.86
2019-04-20T12:44:01.738Z,23.84
2019-04-20T12:46:36.034Z,23.74
2019-04-20T12:49:09.847Z,23.57
2019-04-20T12:51:50.655Z,23.72
2019-04-20T12:54:18.960Z,23.76
2019-04-20T12:56:53.049Z,23.75
2019-04-20T12:59:27.523Z,23.50
2019-04-20T13:02:01.671Z,23.47
2019-04-20T13:04:35.361Z,23.37
2019-04-20T13:07:10.083Z,23.48
2019-04-20T13:09:51.019Z,23.65
2019-04-20T13:12:47.203Z,23.71
2019-04-20T13:16:00.556Z,23.67
2019-04-20T13:18:53.088Z,23.67
2019-04-20T13:21:27.174Z,23.93
2019-04-20T13:24:00.946Z,23.73
2019-04-20T13:26:35.162Z,23.55
2019-04-20T13:29:09.110Z,23.55
2019-04-20T13:31:43.875Z,23.36
2019-04-20T13:34:17.762Z,23.31
2019-04-20T13:36:52.500Z,23.27
2019-04-20T13:39:26.858Z,23.24
2019-04-20T13:42:10.215Z,23.19
2019-04-20T13:44:36.916Z,23.30
2019-04-20T13:47:10.885Z,23.22
2019-04-20T13:49:45.177Z,23.46
2019-04-20T13:52:20.288Z,23.69
2019-04-20T13:54:54.671Z,23.89
2019-04-20T13:57:39.932Z,23.52
2019-04-20T14:00:31.665Z,23.28
2019-04-20T14:03:08.993Z,23.37
2019-04-20T14:05:42.836Z,23.38
2019-04-20T14:08:18.349Z,23.27
2019-04-20T14:10:53.352Z,23.50
2019-04-20T14:13:36.571Z,23.40
2019-04-20T14:16:03.172Z,23.24
2019-04-20T14:18:37.503Z,23.43
2019-04-20T14:21:12.207Z,23.22
2019-04-20T14:23:46.127Z,23.43
2019-04-20T14:26:20.994Z,23.85
2019-04-20T14:28:54.797Z,24.02
2019-04-20T14:31:30.008Z,24.13
2019-04-20T14:34:04.811Z,24.19
2019-04-20T14:36:39.087Z,23.77
2019-04-20T14:39:14.041Z,23.91
2019-04-20T14:41:48.631Z,23.64
2019-04-20T14:44:23.684Z,23.94
2019-04-20T14:46:57.999Z,24.14
2019-04-20T14:49:32.655Z,24.22
2019-04-20T14:52:08.066Z,24.14
2019-04-20T14:54:43.454Z,23.89
2019-04-20T14:57:17.391Z,24.06
2019-04-20T15:00:05.474Z,24.21
2019-04-20T15:02:40.361Z,24.28
2019-04-20T15:05:14.973Z,24.28
2019-04-20T15:07:48.914Z,24.35
2019-04-20T15:10:22.831Z,24.35
2019-04-20T15:13:01.039Z,24.34
2019-04-20T15:15:32.559Z,24.37
2019-04-20T15:18:09.501Z,24.41
2019-04-20T15:20:47.770Z,24.43
2019-04-20T15:23:23.923Z,24.40
2019-04-20T15:25:58.203Z,24.46
2019-04-20T15:28:32.501Z,24.48
2019-04-20T15:31:08.020Z,24.46
2019-04-20T15:33:43.140Z,24.49
2019-04-20T15:36:18.036Z,24.47
2019-04-20T15:38:53.249Z,24.50
2019-04-20T15:41:27.497Z,24.57
2019-04-20T15:44:02.076Z,24.77
2019-04-20T15:46:37.060Z,24.62
2019-04-20T15:49:13.373Z,24.62
2019-04-20T15:51:47.866Z,24.60
2019-04-20T15:54:23.174Z,24.56
2019-04-20T15:57:02.446Z,24.55
2019-04-20T15:59:32.673Z,24.54
2019-04-20T16:02:13.889Z,24.53
2019-04-20T16:04:56.632Z,24.52
2019-04-20T16:07:37.931Z,24.55
2019-04-20T16:10:07.318Z,24.07
2019-04-20T16:12:42.635Z,24.28
2019-04-20T16:15:17.761Z,24.45
2019-04-20T16:17:53.180Z,24.54
2019-04-20T16:20:28.857Z,24.49
2019-04-20T16:23:02.779Z,24.54
2019-04-20T16:25:47.787Z,24.56
2019-04-20T16:28:21.737Z,24.56
2019-04-20T16:30:55.919Z,24.58
2019-04-20T16:33:30.516Z,24.55
2019-04-20T16:36:04.756Z,24.57
2019-04-20T16:38:40.182Z,24.57
2019-04-20T16:41:14.672Z,24.55
2019-04-20T16:43:49.986Z,24.55
2019-04-20T16:46:25.853Z,24.55
2019-04-20T16:49:01.047Z,24.54
2019-04-20T16:51:35.060Z,24.54
2019-04-20T16:54:10.095Z,24.54
2019-04-20T16:56:44.552Z,24.54
2019-04-20T16:59:19.629Z,24.54
2019-04-20T17:01:54.039Z,24.57
2019-04-20T17:04:28.918Z,24.59
2019-04-20T17:07:20.779Z,24.59
2019-04-20T17:09:55.832Z,24.59
2019-04-20T17:12:30.100Z,24.60
2019-04-20T17:15:05.440Z,24.59
2019-04-20T17:17:39.922Z,24.59
2019-04-20T17:20:13.835Z,24.60
2019-04-20T17:22:48.645Z,24.59
2019-04-20T17:25:23.950Z,24.58
2019-04-20T17:28:07.269Z,24.58
2019-04-20T17:31:01.144Z,24.58
2019-04-20T17:34:02.628Z,24.56
2019-04-20T17:36:31.784Z,24.55
2019-04-20T17:39:10.282Z,24.56
2019-04-20T17:42:00.578Z,24.59
2019-04-20T17:44:34.219Z,24.59
2019-04-20T17:47:05.331Z,24.62
2019-04-20T17:49:41.293Z,24.57
2019-04-20T17:52:28.084Z,24.57
2019-04-20T17:54:47.438Z,24.59
2019-04-20T17:57:21.556Z,24.61
2019-04-20T18:00:11.638Z,24.61
2019-04-20T18:03:06.041Z,24.43
2019-04-20T18:06:06.233Z,24.46
2019-04-20T18:08:42.480Z,24.54
2019-04-20T18:11:05.691Z,24.59
2019-04-20T18:13:34.234Z,24.59
2019-04-20T18:16:36.550Z,24.60
2019-04-20T18:19:13.082Z,24.64
2019-04-20T18:21:43.576Z,24.62
2019-04-20T18:24:42.345Z,24.63
2019-04-20T18:27:14.192Z,24.60
2019-04-20T18:29:50.294Z,24.63
2019-04-20T18:32:29.518Z,24.63
2019-04-20T18:35:28.879Z,24.62
2019-04-20T18:38:07.694Z,24.65
2019-04-20T18:40:49.318Z,24.70
2019-04-20T18:43:20.479Z,24.72
2019-04-20T18:46:07.897Z,24.74
2019-04-20T18:48:49.605Z,24.73
2019-04-20T18:51:01.779Z,24.77
2019-04-20T18:53:41.133Z,24.77
2019-04-20T18:56:16.997Z,24.77
2019-04-20T18:58:51.179Z,24.77
2019-04-20T19:01:31.923Z,24.78
2019-04-20T19:04:01.624Z,24.79
2019-04-20T19:06:35.971Z,24.80
2019-04-20T19:09:16.773Z,24.81
2019-04-20T19:11:53.456Z,24.79
2019-04-20T19:14:40.075Z,24.82
2019-04-20T19:17:40.270Z,24.84
2019-04-20T19:20:07.001Z,24.83
2019-04-20T19:22:44.010Z,24.81
2019-04-20T19:25:25.611Z,24.84
2019-04-20T19:27:55.973Z,24.84
2019-04-20T19:30:37.447Z,24.85
2019-04-20T19:33:20.575Z,24.85
2019-04-20T19:35:50.132Z,24.85
2019-04-20T19:38:21.901Z,24.85
2019-04-20T19:40:58.308Z,24.86
2019-04-20T19:43:33.540Z,24.85
2019-04-20T19:46:39.323Z,24.85
2019-04-20T19:48:51.502Z,24.86
2019-04-20T19:51:38.544Z,24.86
2019-04-20T19:54:19.705Z,24.88
2019-04-20T19:56:47.043Z,24.86
2019-04-20T19:59:18.653Z,24.89
2019-04-20T20:01:40.345Z,24.94
2019-04-20T20:04:15.664Z,24.94
2019-04-20T20:06:56.210Z,24.93
2019-04-20T20:09:25.918Z,24.97
2019-04-20T20:12:04.926Z,24.96
2019-04-20T20:14:39.727Z,24.96
2019-04-20T20:17:32.767Z,24.96
2019-04-20T20:20:16.401Z,24.96
2019-04-20T20:22:32.243Z,24.97
2019-04-20T20:24:57.757Z,24.97
2019-04-20T20:27:45.052Z,24.97
2019-04-20T20:30:21.553Z,24.97
2019-04-20T20:32:59.488Z,24.95
2019-04-20T20:35:23.569Z,24.95
2019-04-20T20:37:58.855Z,24.94
2019-04-20T20:40:36.594Z,24.93
2019-04-20T20:43:17.580Z,24.97
2019-04-20T20:45:58.108Z,24.98
2019-04-20T20:48:34.008Z,24.98
2019-04-20T20:51:12.061Z,24.96
2019-04-20T20:53:49.878Z,24.97
2019-04-20T20:56:15.092Z,24.97
2019-04-20T20:58:53.488Z,24.97
2019-04-20T21:01:23.691Z,24.97
2019-04-20T21:03:54.638Z,24.97
2019-04-20T21:06:28.698Z,24.96
2019-04-20T21:09:03.716Z,24.97
2019-04-20T21:11:38.141Z,24.95
2019-04-20T21:14:13.534Z,24.95
2019-04-20T21:16:57.598Z,24.97
2019-04-20T21:19:41.861Z,24.97
2019-04-20T21:22:06.904Z,24.97
2019-04-20T21:24:39.892Z,24.96
2019-04-20T21:27:17.031Z,24.95
2019-04-20T21:29:53.352Z,24.97
2019-04-20T21:32:26.227Z,24.97
2019-04-20T21:35:03.048Z,24.97
2019-04-20T21:37:36.917Z,24.96
2019-04-20T21:40:22.768Z,24.96
2019-04-20T21:42:52.499Z,24.96
2019-04-20T21:45:27.374Z,24.95
2019-04-20T21:48:03.385Z,24.97
2019-04-20T21:50:53.475Z,24.97
2019-04-20T21:53:17.866Z,25.00
2019-04-20T21:55:46.027Z,24.98
2019-04-20T21:58:29.653Z,24.97
2019-04-20T22:01:09.237Z,24.96
2019-04-20T22:03:34.331Z,24.96
2019-04-20T22:06:08.924Z,24.95
2019-04-20T22:08:49.587Z,24.95
2019-04-20T22:11:19.860Z,24.95
2019-04-20T22:13:54.600Z,24.96
2019-04-20T22:16:36.409Z,24.94
2019-04-20T22:19:17.239Z,24.95
2019-04-20T22:21:54.360Z,24.95
2019-04-20T22:24:33.128Z,24.94
2019-04-20T22:27:03.334Z,24.94
2019-04-20T22:29:26.053Z,24.95
2019-04-20T22:32:06.276Z,24.95
2019-04-20T22:34:35.349Z,24.95
2019-04-20T22:37:15.308Z,24.95
2019-04-20T22:39:52.345Z,24.95
2019-04-20T22:42:23.581Z,24.96
2019-04-20T22:45:03.800Z,24.95
2019-04-20T22:47:34.388Z,24.93
2019-04-20T22:50:38.349Z,24.92
2019-04-20T22:52:55.275Z,24.93
2019-04-20T22:55:45.589Z,24.91
2019-04-20T22:58:04.996Z,24.91
2019-04-20T23:00:40.697Z,24.91
2019-04-20T23:03:07.187Z,24.90
2019-04-20T23:05:41.142Z,24.91
2019-04-20T23:08:14.988Z,24.90
2019-04-20T23:10:49.790Z,24.90
2019-04-20T23:13:30.413Z,24.89
2019-04-20T23:16:01.979Z,24.90
2019-04-20T23:18:34.489Z,24.89
2019-04-20T23:21:12.328Z,24.89
2019-04-20T23:23:43.739Z,24.89
2019-04-20T23:26:27.838Z,24.88
2019-04-20T23:28:56.095Z,24.89
2019-04-20T23:31:30.128Z,24.88
2019-04-20T23:34:12.805Z,24.89
2019-04-20T23:36:44.137Z,24.88
2019-04-20T23:39:14.925Z,24.87
2019-04-20T23:41:55.690Z,24.88
2019-04-20T23:44:58.219Z,24.88
2019-04-20T23:47:54.069Z,24.89
2019-04-20T23:50:44.889Z,24.88
2019-04-20T23:53:19.462Z,24.88
2019-04-20T23:55:36.029Z,24.87
2019-04-20T23:58:11.228Z,24.89
